sensor_id;sensor_type;location;lat;lon;timestamp;temperature;humidity
55634;DHT22;41504;53.162;6.788;2024-02-26T00:01:41;5.10;99.90
55634;DHT22;41504;53.162;6.788;2024-02-26T00:04:09;5.10;99.90
55634;DHT22;41504;53.162;6.788;2024-02-26T00:06:35;5.10;99.90
55634;DHT22;41504;53.162;6.788;2024-02-26T00:09:02;5.10;99.90
55634;DHT22;41504;53.162;6.788;2024-02-26T00:11:31;5.10;99.90
55634;DHT22;41504;53.162;6.788;2024-02-26T00:13:57;5.00;99.90
55634;DHT22;41504;53.162;6.788;2024-02-26T00:16:23;5.00;99.90
55634;DHT22;41504;53.162;6.788;2024-02-26T00:18:49;5.00;99.90
55634;DHT22;41504;53.162;6.788;2024-02-26T00:21:15;5.00;99.90
55634;DHT22;41504;53.162;6.788;2024-02-26T00:23:41;5.00;99.90
55634;DHT22;41504;53.162;6.788;2024-02-26T00:26:06;4.90;99.90
55634;DHT22;41504;53.162;6.788;2024-02-26T00:28:33;5.00;99.90
55634;DHT22;41504;53.162;6.788;2024-02-26T00:30:59;4.90;99.90
55634;DHT22;41504;53.162;6.788;2024-02-26T00:33:25;4.90;99.90
55634;DHT22;41504;53.162;6.788;2024-02-26T00:35:50;5.30;99.90
55634;DHT22;41504;53.162;6.788;2024-02-26T00:38:16;4.90;99.90
55634;DHT22;41504;53.162;6.788;2024-02-26T00:40:42;5.20;99.90
55634;DHT22;41504;53.162;6.788;2024-02-26T00:43:08;4.90;99.90
55634;DHT22;41504;53.162;6.788;2024-02-26T00:45:33;4.90;99.90
55634;DHT22;41504;53.162;6.788;2024-02-26T00:47:59;4.90;99.90
55634;DHT22;41504;53.162;6.788;2024-02-26T00:50:40;4.80;99.90
55634;DHT22;41504;53.162;6.788;2024-02-26T00:53:05;4.90;99.90
55634;DHT22;41504;53.162;6.788;2024-02-26T00:55:31;4.90;99.90
55634;DHT22;41504;53.162;6.788;2024-02-26T00:57:57;4.80;99.90
55634;DHT22;41504;53.162;6.788;2024-02-26T01:00:22;4.80;99.90
55634;DHT22;41504;53.162;6.788;2024-02-26T01:02:48;4.80;99.90
55634;DHT22;41504;53.162;6.788;2024-02-26T01:05:14;4.80;99.90
55634;DHT22;41504;53.162;6.788;2024-02-26T01:07:40;4.80;99.90
55634;DHT22;41504;53.162;6.788;2024-02-26T01:10:07;4.80;99.90
55634;DHT22;41504;53.162;6.788;2024-02-26T01:12:33;4.80;99.90
55634;DHT22;41504;53.162;6.788;2024-02-26T01:15:03;4.80;99.90
55634;DHT22;41504;53.162;6.788;2024-02-26T01:17:29;4.80;99.90
55634;DHT22;41504;53.162;6.788;2024-02-26T01:19:55;4.80;99.90
55634;DHT22;41504;53.162;6.788;2024-02-26T01:22:21;4.80;99.90
55634;DHT22;41504;53.162;6.788;2024-02-26T01:24:46;4.80;99.90
55634;DHT22;41504;53.162;6.788;2024-02-26T01:27:12;4.80;99.90
55634;DHT22;41504;53.162;6.788;2024-02-26T01:29:39;4.80;99.90
55634;DHT22;41504;53.162;6.788;2024-02-26T01:32:05;4.80;99.90
55634;DHT22;41504;53.162;6.788;2024-02-26T01:34:31;4.80;99.90
55634;DHT22;41504;53.162;6.788;2024-02-26T01:36:57;4.80;99.90
55634;DHT22;41504;53.162;6.788;2024-02-26T01:39:23;4.80;99.90
55634;DHT22;41504;53.162;6.788;2024-02-26T01:41:48;4.90;99.90
55634;DHT22;41504;53.162;6.788;2024-02-26T01:44:14;4.90;99.90
55634;DHT22;41504;53.162;6.788;2024-02-26T01:46:40;4.90;99.90
55634;DHT22;41504;53.162;6.788;2024-02-26T01:49:06;4.90;99.90
55634;DHT22;41504;53.162;6.788;2024-02-26T01:51:35;4.90;99.90
55634;DHT22;41504;53.162;6.788;2024-02-26T01:54:02;4.90;99.90
55634;DHT22;41504;53.162;6.788;2024-02-26T01:56:29;4.90;99.90
55634;DHT22;41504;53.162;6.788;2024-02-26T01:59:00;4.90;99.90
55634;DHT22;41504;53.162;6.788;2024-02-26T02:01:28;4.90;99.90
55634;DHT22;41504;53.162;6.788;2024-02-26T02:03:56;4.80;99.90
55634;DHT22;41504;53.162;6.788;2024-02-26T02:06:23;4.80;99.90
55634;DHT22;41504;53.162;6.788;2024-02-26T02:08:49;4.90;99.90
55634;DHT22;41504;53.162;6.788;2024-02-26T02:11:15;4.80;99.90
55634;DHT22;41504;53.162;6.788;2024-02-26T02:13:41;4.80;99.90
55634;DHT22;41504;53.162;6.788;2024-02-26T02:16:07;4.80;99.90
55634;DHT22;41504;53.162;6.788;2024-02-26T02:18:33;4.70;99.90
55634;DHT22;41504;53.162;6.788;2024-02-26T02:21:02;4.70;99.90
55634;DHT22;41504;53.162;6.788;2024-02-26T02:23:28;4.70;99.90
55634;DHT22;41504;53.162;6.788;2024-02-26T02:25:54;4.80;99.90
55634;DHT22;41504;53.162;6.788;2024-02-26T02:28:22;4.70;99.90
55634;DHT22;41504;53.162;6.788;2024-02-26T02:30:48;4.70;99.90
55634;DHT22;41504;53.162;6.788;2024-02-26T02:33:15;4.80;99.90
55634;DHT22;41504;53.162;6.788;2024-02-26T02:35:41;4.70;99.90
55634;DHT22;41504;53.162;6.788;2024-02-26T02:38:07;4.70;99.90
55634;DHT22;41504;53.162;6.788;2024-02-26T02:40:33;4.70;99.90
55634;DHT22;41504;53.162;6.788;2024-02-26T02:42:58;4.70;99.90
55634;DHT22;41504;53.162;6.788;2024-02-26T02:45:25;4.70;99.90
55634;DHT22;41504;53.162;6.788;2024-02-26T02:47:51;4.70;99.90
55634;DHT22;41504;53.162;6.788;2024-02-26T02:50:17;4.70;99.90
55634;DHT22;41504;53.162;6.788;2024-02-26T02:52:42;4.70;99.90
55634;DHT22;41504;53.162;6.788;2024-02-26T02:55:08;4.60;99.90
55634;DHT22;41504;53.162;6.788;2024-02-26T02:57:34;4.60;99.90
55634;DHT22;41504;53.162;6.788;2024-02-26T03:00:00;4.60;99.90
55634;DHT22;41504;53.162;6.788;2024-02-26T03:02:25;4.60;99.90
55634;DHT22;41504;53.162;6.788;2024-02-26T03:04:51;4.80;99.90
55634;DHT22;41504;53.162;6.788;2024-02-26T03:07:17;4.60;99.90
55634;DHT22;41504;53.162;6.788;2024-02-26T03:09:43;4.50;99.90
55634;DHT22;41504;53.162;6.788;2024-02-26T03:12:08;4.60;99.90
55634;DHT22;41504;53.162;6.788;2024-02-26T03:14:34;4.50;99.90
55634;DHT22;41504;53.162;6.788;2024-02-26T03:17:00;4.50;99.90
55634;DHT22;41504;53.162;6.788;2024-02-26T03:19:26;4.70;99.90
55634;DHT22;41504;53.162;6.788;2024-02-26T03:21:51;4.60;99.90
55634;DHT22;41504;53.162;6.788;2024-02-26T03:24:17;4.50;99.90
55634;DHT22;41504;53.162;6.788;2024-02-26T03:26:43;4.50;99.90
55634;DHT22;41504;53.162;6.788;2024-02-26T03:29:08;4.50;99.90
55634;DHT22;41504;53.162;6.788;2024-02-26T03:31:34;4.50;99.90
55634;DHT22;41504;53.162;6.788;2024-02-26T03:34:00;4.50;99.90
55634;DHT22;41504;53.162;6.788;2024-02-26T03:36:25;4.40;99.90
55634;DHT22;41504;53.162;6.788;2024-02-26T03:38:52;4.40;99.90
55634;DHT22;41504;53.162;6.788;2024-02-26T03:41:18;4.50;99.90
55634;DHT22;41504;53.162;6.788;2024-02-26T03:43:43;4.40;99.90
55634;DHT22;41504;53.162;6.788;2024-02-26T03:46:10;4.40;99.90
55634;DHT22;41504;53.162;6.788;2024-02-26T03:48:39;4.40;99.90
55634;DHT22;41504;53.162;6.788;2024-02-26T03:51:05;4.40;99.90
55634;DHT22;41504;53.162;6.788;2024-02-26T03:53:31;4.40;99.90
55634;DHT22;41504;53.162;6.788;2024-02-26T03:55:56;4.40;99.90
55634;DHT22;41504;53.162;6.788;2024-02-26T03:58:22;4.30;99.90
55634;DHT22;41504;53.162;6.788;2024-02-26T04:00:48;4.30;99.90
55634;DHT22;41504;53.162;6.788;2024-02-26T04:03:14;4.30;99.90
55634;DHT22;41504;53.162;6.788;2024-02-26T04:05:40;4.30;99.90
55634;DHT22;41504;53.162;6.788;2024-02-26T04:08:06;4.30;99.90
55634;DHT22;41504;53.162;6.788;2024-02-26T04:10:33;4.30;99.90
55634;DHT22;41504;53.162;6.788;2024-02-26T04:13:01;4.30;99.90
55634;DHT22;41504;53.162;6.788;2024-02-26T04:15:26;4.30;99.90
55634;DHT22;41504;53.162;6.788;2024-02-26T04:17:52;4.30;99.90
55634;DHT22;41504;53.162;6.788;2024-02-26T04:20:18;4.30;99.90
55634;DHT22;41504;53.162;6.788;2024-02-26T04:22:44;4.30;99.90
55634;DHT22;41504;53.162;6.788;2024-02-26T04:25:09;4.30;99.90
55634;DHT22;41504;53.162;6.788;2024-02-26T04:27:35;4.30;99.90
55634;DHT22;41504;53.162;6.788;2024-02-26T04:30:01;4.30;99.90
55634;DHT22;41504;53.162;6.788;2024-02-26T04:32:27;4.20;99.90
55634;DHT22;41504;53.162;6.788;2024-02-26T04:34:53;4.20;99.90
55634;DHT22;41504;53.162;6.788;2024-02-26T04:37:19;4.20;99.90
55634;DHT22;41504;53.162;6.788;2024-02-26T04:39:45;4.30;99.90
55634;DHT22;41504;53.162;6.788;2024-02-26T04:42:11;4.20;99.90
55634;DHT22;41504;53.162;6.788;2024-02-26T04:44:36;4.20;99.90
55634;DHT22;41504;53.162;6.788;2024-02-26T04:47:02;4.20;99.90
55634;DHT22;41504;53.162;6.788;2024-02-26T04:49:28;4.20;99.90
55634;DHT22;41504;53.162;6.788;2024-02-26T04:51:54;4.20;99.90
55634;DHT22;41504;53.162;6.788;2024-02-26T04:54:20;4.20;99.90
55634;DHT22;41504;53.162;6.788;2024-02-26T04:56:46;4.20;99.90
55634;DHT22;41504;53.162;6.788;2024-02-26T04:59:11;4.30;99.90
55634;DHT22;41504;53.162;6.788;2024-02-26T05:01:37;4.20;99.90
55634;DHT22;41504;53.162;6.788;2024-02-26T05:04:03;4.20;99.90
55634;DHT22;41504;53.162;6.788;2024-02-26T05:06:29;4.20;99.90
55634;DHT22;41504;53.162;6.788;2024-02-26T05:08:55;4.50;99.90
55634;DHT22;41504;53.162;6.788;2024-02-26T05:11:20;4.40;99.90
55634;DHT22;41504;53.162;6.788;2024-02-26T05:13:47;4.20;99.90
55634;DHT22;41504;53.162;6.788;2024-02-26T05:16:13;4.30;99.90
55634;DHT22;41504;53.162;6.788;2024-02-26T05:18:39;4.30;99.90
55634;DHT22;41504;53.162;6.788;2024-02-26T05:21:04;4.50;99.90
55634;DHT22;41504;53.162;6.788;2024-02-26T05:23:30;4.30;99.90
55634;DHT22;41504;53.162;6.788;2024-02-26T05:25:56;4.30;99.90
55634;DHT22;41504;53.162;6.788;2024-02-26T05:28:21;4.30;99.90
55634;DHT22;41504;53.162;6.788;2024-02-26T05:30:47;4.30;99.90
55634;DHT22;41504;53.162;6.788;2024-02-26T05:33:13;4.30;99.90
55634;DHT22;41504;53.162;6.788;2024-02-26T05:35:39;4.30;99.90
55634;DHT22;41504;53.162;6.788;2024-02-26T05:38:05;4.30;99.90
55634;DHT22;41504;53.162;6.788;2024-02-26T05:40:31;4.30;99.90
55634;DHT22;41504;53.162;6.788;2024-02-26T05:42:57;4.30;99.90
55634;DHT22;41504;53.162;6.788;2024-02-26T05:45:22;4.50;99.90
55634;DHT22;41504;53.162;6.788;2024-02-26T05:47:48;4.30;99.90
55634;DHT22;41504;53.162;6.788;2024-02-26T05:50:15;4.30;99.90
55634;DHT22;41504;53.162;6.788;2024-02-26T05:52:41;4.30;99.90
55634;DHT22;41504;53.162;6.788;2024-02-26T05:55:07;4.30;99.90
55634;DHT22;41504;53.162;6.788;2024-02-26T05:57:34;4.30;99.90
55634;DHT22;41504;53.162;6.788;2024-02-26T05:59:59;4.30;99.90
55634;DHT22;41504;53.162;6.788;2024-02-26T06:02:30;4.30;99.90
55634;DHT22;41504;53.162;6.788;2024-02-26T06:04:55;4.30;99.90
55634;DHT22;41504;53.162;6.788;2024-02-26T06:07:21;4.60;99.90
55634;DHT22;41504;53.162;6.788;2024-02-26T06:09:47;4.30;99.90
55634;DHT22;41504;53.162;6.788;2024-02-26T06:12:13;4.30;99.90
55634;DHT22;41504;53.162;6.788;2024-02-26T06:14:39;4.30;99.90
55634;DHT22;41504;53.162;6.788;2024-02-26T06:17:05;4.30;99.90
55634;DHT22;41504;53.162;6.788;2024-02-26T06:19:32;4.30;99.90
55634;DHT22;41504;53.162;6.788;2024-02-26T06:21:58;4.30;99.90
55634;DHT22;41504;53.162;6.788;2024-02-26T06:24:23;4.30;99.90
55634;DHT22;41504;53.162;6.788;2024-02-26T06:26:49;4.30;99.90
55634;DHT22;41504;53.162;6.788;2024-02-26T06:29:15;4.30;99.90
55634;DHT22;41504;53.162;6.788;2024-02-26T06:31:41;4.30;99.90
55634;DHT22;41504;53.162;6.788;2024-02-26T06:34:07;4.40;99.90
55634;DHT22;41504;53.162;6.788;2024-02-26T06:36:32;4.30;99.90
55634;DHT22;41504;53.162;6.788;2024-02-26T06:38:58;4.30;99.90
55634;DHT22;41504;53.162;6.788;2024-02-26T06:41:24;4.30;99.90
55634;DHT22;41504;53.162;6.788;2024-02-26T06:43:55;4.50;99.90
55634;DHT22;41504;53.162;6.788;2024-02-26T06:46:21;4.50;99.90
55634;DHT22;41504;53.162;6.788;2024-02-26T06:48:48;4.30;99.90
55634;DHT22;41504;53.162;6.788;2024-02-26T06:51:14;4.30;99.90
55634;DHT22;41504;53.162;6.788;2024-02-26T06:53:40;4.40;99.90
55634;DHT22;41504;53.162;6.788;2024-02-26T06:56:06;4.60;99.90
55634;DHT22;41504;53.162;6.788;2024-02-26T06:58:31;4.40;99.90
55634;DHT22;41504;53.162;6.788;2024-02-26T07:00:57;4.40;99.90
55634;DHT22;41504;53.162;6.788;2024-02-26T07:03:23;4.40;99.90
55634;DHT22;41504;53.162;6.788;2024-02-26T07:05:49;4.40;99.90
55634;DHT22;41504;53.162;6.788;2024-02-26T07:08:15;4.40;99.90
55634;DHT22;41504;53.162;6.788;2024-02-26T07:10:41;4.60;99.90
55634;DHT22;41504;53.162;6.788;2024-02-26T07:13:11;4.40;99.90
55634;DHT22;41504;53.162;6.788;2024-02-26T07:15:37;4.40;99.90
55634;DHT22;41504;53.162;6.788;2024-02-26T07:18:02;4.90;99.90
55634;DHT22;41504;53.162;6.788;2024-02-26T07:20:31;4.40;99.90
55634;DHT22;41504;53.162;6.788;2024-02-26T07:22:57;4.50;99.90
55634;DHT22;41504;53.162;6.788;2024-02-26T07:25:23;4.40;99.90
55634;DHT22;41504;53.162;6.788;2024-02-26T07:27:50;4.50;99.90
55634;DHT22;41504;53.162;6.788;2024-02-26T07:30:16;4.50;99.90
55634;DHT22;41504;53.162;6.788;2024-02-26T07:32:42;4.50;99.90
55634;DHT22;41504;53.162;6.788;2024-02-26T07:35:08;4.50;99.90
55634;DHT22;41504;53.162;6.788;2024-02-26T07:37:34;4.60;99.90
55634;DHT22;41504;53.162;6.788;2024-02-26T07:40:00;4.50;99.90
55634;DHT22;41504;53.162;6.788;2024-02-26T07:42:26;4.50;99.90
55634;DHT22;41504;53.162;6.788;2024-02-26T07:44:52;4.50;99.90
55634;DHT22;41504;53.162;6.788;2024-02-26T07:47:18;4.50;99.90
55634;DHT22;41504;53.162;6.788;2024-02-26T07:49:44;4.60;99.90
55634;DHT22;41504;53.162;6.788;2024-02-26T07:52:10;4.60;99.90
55634;DHT22;41504;53.162;6.788;2024-02-26T07:54:36;4.60;99.90
55634;DHT22;41504;53.162;6.788;2024-02-26T07:57:02;4.60;99.90
55634;DHT22;41504;53.162;6.788;2024-02-26T07:59:31;4.60;99.90
55634;DHT22;41504;53.162;6.788;2024-02-26T08:01:57;4.60;99.90
55634;DHT22;41504;53.162;6.788;2024-02-26T08:04:22;4.80;99.90
55634;DHT22;41504;53.162;6.788;2024-02-26T08:06:48;4.60;99.90
55634;DHT22;41504;53.162;6.788;2024-02-26T08:09:14;4.60;99.90
55634;DHT22;41504;53.162;6.788;2024-02-26T08:11:40;4.70;99.90
55634;DHT22;41504;53.162;6.788;2024-02-26T08:14:05;4.80;99.90
55634;DHT22;41504;53.162;6.788;2024-02-26T08:16:31;4.60;99.90
55634;DHT22;41504;53.162;6.788;2024-02-26T08:18:57;4.70;99.90
55634;DHT22;41504;53.162;6.788;2024-02-26T08:21:23;4.70;99.90
55634;DHT22;41504;53.162;6.788;2024-02-26T08:23:49;4.90;99.90
55634;DHT22;41504;53.162;6.788;2024-02-26T08:26:14;4.70;99.90
55634;DHT22;41504;53.162;6.788;2024-02-26T08:28:40;4.70;99.90
55634;DHT22;41504;53.162;6.788;2024-02-26T08:31:06;4.70;99.90
55634;DHT22;41504;53.162;6.788;2024-02-26T08:33:32;4.80;99.90
55634;DHT22;41504;53.162;6.788;2024-02-26T08:35:59;4.80;99.90
55634;DHT22;41504;53.162;6.788;2024-02-26T08:38:29;4.80;99.90
55634;DHT22;41504;53.162;6.788;2024-02-26T08:40:55;4.80;99.90
55634;DHT22;41504;53.162;6.788;2024-02-26T08:43:20;4.80;99.90
55634;DHT22;41504;53.162;6.788;2024-02-26T08:45:46;4.80;99.90
55634;DHT22;41504;53.162;6.788;2024-02-26T08:48:12;4.80;99.90
55634;DHT22;41504;53.162;6.788;2024-02-26T08:50:37;4.80;99.90
55634;DHT22;41504;53.162;6.788;2024-02-26T08:53:03;4.90;99.90
55634;DHT22;41504;53.162;6.788;2024-02-26T08:55:29;4.90;99.90
55634;DHT22;41504;53.162;6.788;2024-02-26T08:57:55;4.90;99.90
55634;DHT22;41504;53.162;6.788;2024-02-26T09:00:21;4.90;99.90
55634;DHT22;41504;53.162;6.788;2024-02-26T09:02:47;5.00;99.90
55634;DHT22;41504;53.162;6.788;2024-02-26T09:05:14;5.00;99.90
55634;DHT22;41504;53.162;6.788;2024-02-26T09:07:39;5.00;99.90
55634;DHT22;41504;53.162;6.788;2024-02-26T09:10:06;5.00;99.90
55634;DHT22;41504;53.162;6.788;2024-02-26T09:12:34;5.10;99.90
55634;DHT22;41504;53.162;6.788;2024-02-26T09:15:00;5.10;99.90
55634;DHT22;41504;53.162;6.788;2024-02-26T09:17:25;5.10;99.90
55634;DHT22;41504;53.162;6.788;2024-02-26T09:19:51;5.10;99.90
55634;DHT22;41504;53.162;6.788;2024-02-26T09:22:17;5.10;99.90
55634;DHT22;41504;53.162;6.788;2024-02-26T09:24:42;5.10;99.90
55634;DHT22;41504;53.162;6.788;2024-02-26T09:27:08;5.40;99.90
55634;DHT22;41504;53.162;6.788;2024-02-26T09:29:35;5.20;99.90
55634;DHT22;41504;53.162;6.788;2024-02-26T09:32:01;5.30;99.90
55634;DHT22;41504;53.162;6.788;2024-02-26T09:34:28;5.20;99.90
55634;DHT22;41504;53.162;6.788;2024-02-26T09:36:54;5.30;99.90
55634;DHT22;41504;53.162;6.788;2024-02-26T09:39:19;5.30;99.90
55634;DHT22;41504;53.162;6.788;2024-02-26T09:41:47;5.30;99.90
55634;DHT22;41504;53.162;6.788;2024-02-26T09:44:20;5.40;99.90
55634;DHT22;41504;53.162;6.788;2024-02-26T09:46:49;5.40;99.90
55634;DHT22;41504;53.162;6.788;2024-02-26T09:49:23;5.40;99.90
55634;DHT22;41504;53.162;6.788;2024-02-26T09:51:50;5.40;99.90
55634;DHT22;41504;53.162;6.788;2024-02-26T09:54:17;5.50;99.90
55634;DHT22;41504;53.162;6.788;2024-02-26T09:56:43;5.60;99.90
55634;DHT22;41504;53.162;6.788;2024-02-26T09:59:16;5.50;99.90
55634;DHT22;41504;53.162;6.788;2024-02-26T10:01:42;5.60;99.90
55634;DHT22;41504;53.162;6.788;2024-02-26T10:04:10;5.60;99.90
55634;DHT22;41504;53.162;6.788;2024-02-26T10:06:37;5.60;99.90
55634;DHT22;41504;53.162;6.788;2024-02-26T10:09:03;5.60;99.90
55634;DHT22;41504;53.162;6.788;2024-02-26T10:11:32;5.60;99.90
55634;DHT22;41504;53.162;6.788;2024-02-26T10:13:58;5.60;99.90
55634;DHT22;41504;53.162;6.788;2024-02-26T10:16:27;5.60;99.90
55634;DHT22;41504;53.162;6.788;2024-02-26T10:18:53;5.70;99.90
55634;DHT22;41504;53.162;6.788;2024-02-26T10:21:22;5.70;99.90
55634;DHT22;41504;53.162;6.788;2024-02-26T10:23:48;5.70;99.90
55634;DHT22;41504;53.162;6.788;2024-02-26T10:26:15;5.70;99.90
55634;DHT22;41504;53.162;6.788;2024-02-26T10:28:45;5.70;99.90
55634;DHT22;41504;53.162;6.788;2024-02-26T10:31:13;5.80;99.90
55634;DHT22;41504;53.162;6.788;2024-02-26T10:33:39;5.80;99.90
55634;DHT22;41504;53.162;6.788;2024-02-26T10:36:06;5.80;99.90
55634;DHT22;41504;53.162;6.788;2024-02-26T10:38:34;5.80;99.90
55634;DHT22;41504;53.162;6.788;2024-02-26T10:41:01;6.10;99.90
55634;DHT22;41504;53.162;6.788;2024-02-26T10:43:27;5.90;99.90
55634;DHT22;41504;53.162;6.788;2024-02-26T10:45:56;6.00;99.90
55634;DHT22;41504;53.162;6.788;2024-02-26T10:48:22;5.90;99.90
55634;DHT22;41504;53.162;6.788;2024-02-26T10:50:48;6.00;99.90
55634;DHT22;41504;53.162;6.788;2024-02-26T10:53:20;6.00;99.90
55634;DHT22;41504;53.162;6.788;2024-02-26T10:55:59;6.00;99.90
55634;DHT22;41504;53.162;6.788;2024-02-26T10:58:27;6.00;99.90
55634;DHT22;41504;53.162;6.788;2024-02-26T11:00:56;6.00;99.90
55634;DHT22;41504;53.162;6.788;2024-02-26T11:03:22;6.00;99.90
55634;DHT22;41504;53.162;6.788;2024-02-26T11:05:49;6.00;99.90
55634;DHT22;41504;53.162;6.788;2024-02-26T11:08:19;6.10;99.90
55634;DHT22;41504;53.162;6.788;2024-02-26T11:10:53;6.10;99.90
55634;DHT22;41504;53.162;6.788;2024-02-26T11:13:19;6.10;99.90
55634;DHT22;41504;53.162;6.788;2024-02-26T11:15:47;6.10;99.90
55634;DHT22;41504;53.162;6.788;2024-02-26T11:18:18;6.10;99.90
55634;DHT22;41504;53.162;6.788;2024-02-26T11:20:44;6.10;99.90
55634;DHT22;41504;53.162;6.788;2024-02-26T11:23:11;6.20;99.90
55634;DHT22;41504;53.162;6.788;2024-02-26T11:25:37;6.20;99.90
55634;DHT22;41504;53.162;6.788;2024-02-26T11:28:08;6.20;99.90
55634;DHT22;41504;53.162;6.788;2024-02-26T11:30:38;6.30;99.90
55634;DHT22;41504;53.162;6.788;2024-02-26T11:33:09;6.30;99.90
55634;DHT22;41504;53.162;6.788;2024-02-26T11:35:36;6.30;99.90
55634;DHT22;41504;53.162;6.788;2024-02-26T11:38:03;6.40;99.90
55634;DHT22;41504;53.162;6.788;2024-02-26T11:40:33;6.40;99.90
55634;DHT22;41504;53.162;6.788;2024-02-26T11:42:59;6.50;99.90
55634;DHT22;41504;53.162;6.788;2024-02-26T11:48:14;6.40;99.90
55634;DHT22;41504;53.162;6.788;2024-02-26T11:50:40;6.60;99.90
55634;DHT22;41504;53.162;6.788;2024-02-26T11:53:22;6.50;99.90
55634;DHT22;41504;53.162;6.788;2024-02-26T11:59:09;6.60;99.90
55634;DHT22;41504;53.162;6.788;2024-02-26T12:01:43;6.80;99.90
55634;DHT22;41504;53.162;6.788;2024-02-26T12:04:26;6.60;99.90
55634;DHT22;41504;53.162;6.788;2024-02-26T12:06:57;6.60;99.90
55634;DHT22;41504;53.162;6.788;2024-02-26T12:09:41;7.50;99.90
55634;DHT22;41504;53.162;6.788;2024-02-26T12:12:08;6.60;99.90
55634;DHT22;41504;53.162;6.788;2024-02-26T12:14:40;6.60;99.90
55634;DHT22;41504;53.162;6.788;2024-02-26T12:17:25;7.00;99.90
55634;DHT22;41504;53.162;6.788;2024-02-26T12:19:52;6.70;99.90
55634;DHT22;41504;53.162;6.788;2024-02-26T12:22:19;6.70;99.90
55634;DHT22;41504;53.162;6.788;2024-02-26T12:24:45;6.80;99.90
55634;DHT22;41504;53.162;6.788;2024-02-26T12:27:11;7.20;99.90
55634;DHT22;41504;53.162;6.788;2024-02-26T12:29:37;6.80;99.90
55634;DHT22;41504;53.162;6.788;2024-02-26T12:32:04;6.80;99.90
55634;DHT22;41504;53.162;6.788;2024-02-26T12:34:31;6.80;99.90
55634;DHT22;41504;53.162;6.788;2024-02-26T12:36:57;6.80;99.90
55634;DHT22;41504;53.162;6.788;2024-02-26T12:39:23;6.80;99.90
55634;DHT22;41504;53.162;6.788;2024-02-26T12:41:49;6.80;99.90
55634;DHT22;41504;53.162;6.788;2024-02-26T12:44:24;6.80;99.90
55634;DHT22;41504;53.162;6.788;2024-02-26T12:46:50;6.70;99.90
55634;DHT22;41504;53.162;6.788;2024-02-26T12:49:16;6.70;99.90
55634;DHT22;41504;53.162;6.788;2024-02-26T12:51:45;6.70;99.90
55634;DHT22;41504;53.162;6.788;2024-02-26T12:54:11;6.80;99.90
55634;DHT22;41504;53.162;6.788;2024-02-26T12:56:38;6.60;99.90
55634;DHT22;41504;53.162;6.788;2024-02-26T12:59:04;6.60;99.90
55634;DHT22;41504;53.162;6.788;2024-02-26T13:01:30;6.50;99.90
55634;DHT22;41504;53.162;6.788;2024-02-26T13:03:57;6.40;99.90
55634;DHT22;41504;53.162;6.788;2024-02-26T13:06:24;6.50;99.90
55634;DHT22;41504;53.162;6.788;2024-02-26T13:08:49;6.40;99.90
55634;DHT22;41504;53.162;6.788;2024-02-26T13:11:21;7.00;99.90
55634;DHT22;41504;53.162;6.788;2024-02-26T13:13:48;6.30;99.90
55634;DHT22;41504;53.162;6.788;2024-02-26T13:16:15;6.30;99.90
55634;DHT22;41504;53.162;6.788;2024-02-26T13:18:41;6.30;99.90
55634;DHT22;41504;53.162;6.788;2024-02-26T13:21:10;6.40;99.90
55634;DHT22;41504;53.162;6.788;2024-02-26T13:23:37;6.20;99.90
55634;DHT22;41504;53.162;6.788;2024-02-26T13:26:04;6.20;99.90
55634;DHT22;41504;53.162;6.788;2024-02-26T13:28:29;6.20;99.90
55634;DHT22;41504;53.162;6.788;2024-02-26T13:30:56;6.20;99.90
55634;DHT22;41504;53.162;6.788;2024-02-26T13:33:26;6.20;99.90
55634;DHT22;41504;53.162;6.788;2024-02-26T13:35:53;6.20;99.90
55634;DHT22;41504;53.162;6.788;2024-02-26T13:38:19;6.20;99.90
55634;DHT22;41504;53.162;6.788;2024-02-26T13:40:45;6.20;99.90
55634;DHT22;41504;53.162;6.788;2024-02-26T13:43:10;6.20;99.90
55634;DHT22;41504;53.162;6.788;2024-02-26T13:45:37;6.20;99.90
55634;DHT22;41504;53.162;6.788;2024-02-26T13:48:05;6.10;99.90
55634;DHT22;41504;53.162;6.788;2024-02-26T13:50:31;6.10;99.90
55634;DHT22;41504;53.162;6.788;2024-02-26T13:52:57;6.60;99.90
55634;DHT22;41504;53.162;6.788;2024-02-26T13:55:26;6.20;99.90
55634;DHT22;41504;53.162;6.788;2024-02-26T13:57:54;6.20;99.90
55634;DHT22;41504;53.162;6.788;2024-02-26T14:00:20;6.10;99.90
55634;DHT22;41504;53.162;6.788;2024-02-26T14:02:46;6.10;99.90
55634;DHT22;41504;53.162;6.788;2024-02-26T14:05:12;6.10;99.90
55634;DHT22;41504;53.162;6.788;2024-02-26T14:07:39;6.00;99.90
55634;DHT22;41504;53.162;6.788;2024-02-26T14:10:05;6.00;99.90
55634;DHT22;41504;53.162;6.788;2024-02-26T14:12:31;6.00;99.90
55634;DHT22;41504;53.162;6.788;2024-02-26T14:14:56;6.00;99.90
55634;DHT22;41504;53.162;6.788;2024-02-26T14:17:24;6.00;99.90
55634;DHT22;41504;53.162;6.788;2024-02-26T14:19:50;6.00;99.90
55634;DHT22;41504;53.162;6.788;2024-02-26T14:22:15;5.90;99.90
55634;DHT22;41504;53.162;6.788;2024-02-26T14:24:42;5.90;99.90
55634;DHT22;41504;53.162;6.788;2024-02-26T14:27:13;6.00;99.90
55634;DHT22;41504;53.162;6.788;2024-02-26T14:29:46;6.30;99.90
55634;DHT22;41504;53.162;6.788;2024-02-26T14:32:12;5.90;99.90
55634;DHT22;41504;53.162;6.788;2024-02-26T14:34:38;6.00;99.90
55634;DHT22;41504;53.162;6.788;2024-02-26T14:37:04;6.30;99.90
55634;DHT22;41504;53.162;6.788;2024-02-26T14:39:33;5.90;99.90
55634;DHT22;41504;53.162;6.788;2024-02-26T14:41:59;5.80;99.90
55634;DHT22;41504;53.162;6.788;2024-02-26T14:44:26;5.90;99.90
55634;DHT22;41504;53.162;6.788;2024-02-26T14:46:52;5.90;99.90
55634;DHT22;41504;53.162;6.788;2024-02-26T14:49:18;5.90;99.90
55634;DHT22;41504;53.162;6.788;2024-02-26T14:51:44;5.80;99.90
55634;DHT22;41504;53.162;6.788;2024-02-26T14:54:14;5.80;99.90
55634;DHT22;41504;53.162;6.788;2024-02-26T14:56:40;5.80;99.90
55634;DHT22;41504;53.162;6.788;2024-02-26T14:59:06;5.80;99.90
55634;DHT22;41504;53.162;6.788;2024-02-26T15:01:32;5.80;99.90
55634;DHT22;41504;53.162;6.788;2024-02-26T15:03:58;5.80;99.90
55634;DHT22;41504;53.162;6.788;2024-02-26T15:06:25;5.80;99.90
55634;DHT22;41504;53.162;6.788;2024-02-26T15:08:52;5.80;99.90
55634;DHT22;41504;53.162;6.788;2024-02-26T15:11:23;5.80;99.90
55634;DHT22;41504;53.162;6.788;2024-02-26T15:13:49;5.80;99.90
55634;DHT22;41504;53.162;6.788;2024-02-26T15:16:20;6.00;99.90
55634;DHT22;41504;53.162;6.788;2024-02-26T15:18:47;5.80;99.90
55634;DHT22;41504;53.162;6.788;2024-02-26T15:21:13;5.90;99.90
55634;DHT22;41504;53.162;6.788;2024-02-26T15:23:39;5.80;99.90
55634;DHT22;41504;53.162;6.788;2024-02-26T15:26:05;5.80;99.90
55634;DHT22;41504;53.162;6.788;2024-02-26T15:28:31;5.90;99.90
55634;DHT22;41504;53.162;6.788;2024-02-26T15:30:56;5.80;99.90
55634;DHT22;41504;53.162;6.788;2024-02-26T15:33:23;5.90;99.90
55634;DHT22;41504;53.162;6.788;2024-02-26T15:35:50;5.80;99.90
55634;DHT22;41504;53.162;6.788;2024-02-26T15:38:18;5.80;99.90
55634;DHT22;41504;53.162;6.788;2024-02-26T15:40:44;5.80;99.90
55634;DHT22;41504;53.162;6.788;2024-02-26T15:43:12;5.80;99.90
55634;DHT22;41504;53.162;6.788;2024-02-26T15:45:38;5.80;99.90
55634;DHT22;41504;53.162;6.788;2024-02-26T15:48:04;5.80;99.90